createdAt,value
2018-10-02T00:00:12.691Z,1.60
2018-10-02T00:02:40.240Z,2.33
2018-10-02T00:05:07.929Z,2.30
2018-10-02T00:07:35.624Z,2.50
2018-10-02T00:10:03.285Z,2.47
2018-10-02T00:12:36.501Z,1.50
2018-10-02T00:15:04.567Z,2.80
2018-10-02T00:17:32.116Z,3.37
2018-10-02T00:19:59.784Z,1.83
2018-10-02T00:22:27.435Z,2.67
2018-10-02T00:24:54.999Z,1.60
2018-10-02T00:27:22.796Z,2.90
2018-10-02T00:29:50.365Z,2.80
2018-10-02T00:32:18.227Z,2.13
2018-10-02T00:34:45.832Z,2.60
2018-10-02T00:37:13.931Z,3.47
2018-10-02T00:39:41.525Z,2.77
2018-10-02T00:42:09.368Z,2.77
2018-10-02T00:44:37.180Z,2.80
2018-10-02T00:47:04.874Z,2.53
2018-10-02T00:49:32.528Z,2.27
2018-10-02T00:52:00.148Z,2.57
2018-10-02T00:54:27.852Z,2.37
2018-10-02T00:56:55.431Z,4.33
2018-10-02T00:59:23.259Z,2.37
2018-10-02T01:01:51.086Z,2.67
2018-10-02T01:04:18.733Z,2.53
2018-10-02T01:09:30.046Z,2.20
2018-10-02T01:11:57.912Z,3.93
2018-10-02T01:14:25.552Z,2.93
2018-10-02T01:16:53.196Z,2.50
2018-10-02T01:19:20.968Z,2.70
2018-10-02T01:21:48.514Z,2.20
2018-10-02T01:24:16.086Z,2.90
2018-10-02T01:26:43.652Z,2.80
2018-10-02T01:29:11.166Z,2.20
2018-10-02T01:31:39.746Z,2.20
2018-10-02T01:34:07.852Z,2.27
2018-10-02T01:36:36.239Z,3.07
2018-10-02T01:39:05.212Z,2.57
2018-10-02T01:41:32.730Z,2.90
2018-10-02T01:44:00.797Z,2.30
2018-10-02T01:46:28.629Z,2.80
2018-10-02T01:48:56.190Z,1.97
2018-10-02T01:51:23.979Z,2.40
2018-10-02T01:53:51.627Z,2.47
2018-10-02T01:56:19.228Z,2.80
2018-10-02T01:58:46.909Z,2.53
2018-10-02T02:01:14.584Z,2.77
2018-10-02T02:03:42.167Z,2.10
2018-10-02T02:06:09.737Z,2.67
2018-10-02T02:08:37.257Z,2.50
2018-10-02T02:11:05.284Z,3.57
2018-10-02T02:13:32.886Z,2.83
2018-10-02T02:16:00.427Z,2.87
2018-10-02T02:18:28.080Z,2.60
2018-10-02T02:20:56.318Z,3.33
2018-10-02T02:23:24.107Z,2.67
2018-10-02T02:25:51.666Z,2.80
2018-10-02T02:28:19.628Z,2.43
2018-10-02T02:30:47.285Z,3.00
2018-10-02T02:33:14.991Z,2.00
2018-10-02T02:35:42.565Z,2.80
2018-10-02T02:38:10.105Z,1.97
2018-10-02T02:40:37.684Z,2.80
2018-10-02T02:43:05.580Z,2.70
2018-10-02T02:45:33.145Z,3.67
2018-10-02T02:48:06.757Z,3.20
2018-10-02T02:51:00.689Z,2.17
2018-10-02T02:53:28.566Z,2.20
2018-10-02T02:55:56.443Z,2.47
2018-10-02T02:58:24.081Z,2.60
2018-10-02T03:00:51.836Z,2.50
2018-10-02T03:03:19.540Z,3.73
2018-10-02T03:05:47.277Z,3.27
2018-10-02T03:08:14.927Z,2.70
2018-10-02T03:10:42.820Z,3.20
2018-10-02T03:13:10.368Z,3.47
2018-10-02T03:15:37.963Z,3.23
2018-10-02T03:18:05.522Z,3.13
2018-10-02T03:20:33.165Z,3.47
2018-10-02T03:23:00.845Z,2.80
2018-10-02T03:25:28.517Z,2.67
2018-10-02T03:27:56.189Z,2.63
2018-10-02T03:30:23.867Z,3.60
2018-10-02T03:32:51.500Z,3.20
2018-10-02T03:35:19.343Z,4.27
2018-10-02T03:37:46.982Z,3.50
2018-10-02T03:40:14.519Z,3.10
2018-10-02T03:42:42.181Z,3.30
2018-10-02T03:45:09.935Z,4.10
2018-10-02T03:47:38.098Z,3.40
2018-10-02T03:50:05.838Z,2.83
2018-10-02T03:52:33.493Z,2.93
2018-10-02T03:55:01.062Z,2.80
2018-10-02T03:57:28.831Z,3.40
2018-10-02T03:59:56.585Z,3.80
2018-10-02T04:02:24.168Z,3.40
2018-10-02T04:04:51.711Z,3.87
2018-10-02T04:07:19.404Z,3.50
2018-10-02T04:09:46.988Z,3.50
2018-10-02T04:12:14.900Z,3.63
2018-10-02T04:14:42.658Z,4.00
2018-10-02T04:17:10.436Z,4.13
2018-10-02T04:19:38.000Z,3.03
2018-10-02T04:22:05.969Z,3.00
2018-10-02T04:24:33.476Z,3.70
2018-10-02T04:27:01.077Z,3.10
2018-10-02T04:29:28.657Z,3.10
2018-10-02T04:31:56.300Z,2.83
2018-10-02T04:34:24.178Z,3.30
2018-10-02T04:36:52.484Z,2.67
2018-10-02T04:39:20.178Z,3.17
2018-10-02T04:41:47.789Z,2.63
2018-10-02T04:44:15.323Z,3.37
2018-10-02T04:46:43.034Z,2.70
2018-10-02T04:49:10.701Z,3.43
2018-10-02T04:51:38.357Z,3.20
2018-10-02T04:54:06.035Z,3.40
2018-10-02T04:56:33.669Z,3.13
2018-10-02T04:59:01.216Z,3.63
2018-10-02T05:01:28.881Z,2.80
2018-10-02T05:03:56.554Z,3.47
2018-10-02T05:06:24.112Z,2.90
2018-10-02T05:08:51.863Z,3.80
2018-10-02T05:11:20.332Z,3.30
2018-10-02T05:13:47.850Z,3.33
2018-10-02T05:16:15.433Z,2.83
2018-10-02T05:18:43.378Z,2.90
2018-10-02T05:21:11.427Z,3.97
2018-10-02T05:23:38.952Z,3.63
2018-10-02T05:26:06.548Z,4.30
2018-10-02T05:28:34.093Z,3.53
2018-10-02T05:31:01.686Z,3.87
2018-10-02T05:33:29.276Z,4.37
2018-10-02T05:35:57.015Z,3.93
2018-10-02T05:38:24.645Z,4.00
2018-10-02T05:40:52.381Z,4.10
2018-10-02T05:43:21.019Z,3.17
2018-10-02T05:45:48.812Z,3.63
2018-10-02T05:48:16.407Z,3.90
2018-10-02T05:50:44.383Z,4.00
2018-10-02T05:53:11.917Z,4.23
2018-10-02T05:55:39.530Z,4.07
2018-10-02T05:58:07.280Z,3.67
2018-10-02T06:00:35.025Z,5.10
2018-10-02T06:03:02.558Z,5.73
2018-10-02T06:05:30.472Z,6.20
2018-10-02T06:07:58.478Z,4.70
2018-10-02T06:10:26.176Z,3.67
2018-10-02T06:12:53.903Z,4.43
2018-10-02T06:15:21.542Z,4.20
2018-10-02T06:17:49.143Z,4.40
2018-10-02T06:20:16.711Z,4.90
2018-10-02T06:22:44.257Z,5.37
2018-10-02T06:25:11.798Z,4.10
2018-10-02T06:27:39.417Z,3.73
2018-10-02T06:30:07.116Z,3.80
2018-10-02T06:32:34.958Z,3.77
2018-10-02T06:35:02.626Z,2.77
2018-10-02T06:37:30.176Z,3.90
2018-10-02T06:39:57.940Z,3.30
2018-10-02T06:42:25.864Z,3.70
2018-10-02T06:44:53.880Z,4.13
2018-10-02T06:47:21.440Z,3.97
2018-10-02T06:49:48.965Z,3.83
2018-10-02T06:52:16.694Z,3.83
2018-10-02T06:54:44.562Z,4.57
2018-10-02T06:57:12.223Z,3.73
2018-10-02T06:59:39.989Z,3.43
2018-10-02T07:02:07.539Z,5.30
2018-10-02T07:04:35.173Z,4.00
2018-10-02T07:07:03.154Z,3.27
2018-10-02T07:09:30.767Z,3.00
2018-10-02T07:11:58.384Z,2.50
2018-10-02T07:14:27.255Z,2.50
2018-10-02T07:16:54.787Z,2.70
2018-10-02T07:19:22.588Z,2.93
2018-10-02T07:21:50.237Z,2.53
2018-10-02T07:24:17.836Z,2.37
2018-10-02T07:26:45.669Z,2.43
2018-10-02T07:29:13.356Z,4.40
2018-10-02T07:31:40.921Z,2.80
2018-10-02T07:34:08.453Z,2.70
2018-10-02T07:36:36.318Z,2.83
2018-10-02T07:39:05.385Z,6.03
2018-10-02T07:41:33.099Z,3.03
2018-10-02T07:44:00.769Z,2.70
2018-10-02T07:46:28.341Z,2.83
2018-10-02T07:48:55.929Z,2.70
2018-10-02T07:51:23.714Z,2.93
2018-10-02T07:53:51.328Z,3.07
2018-10-02T07:56:19.310Z,2.60
2018-10-02T07:58:47.141Z,3.50
2018-10-02T08:01:15.282Z,3.10
2018-10-02T08:03:42.832Z,2.63
2018-10-02T08:06:10.465Z,2.53
2018-10-02T08:08:38.582Z,3.10
2018-10-02T08:11:06.201Z,4.67
2018-10-02T08:13:33.806Z,4.00
2018-10-02T08:16:01.561Z,4.47
2018-10-02T08:18:29.262Z,2.83
2018-10-02T08:20:56.888Z,3.60
2018-10-02T08:23:24.471Z,2.73
2018-10-02T08:25:52.158Z,3.20
2018-10-02T08:28:21.059Z,3.20
2018-10-02T08:30:49.508Z,3.17
2018-10-02T08:33:17.096Z,2.50
2018-10-02T08:35:44.688Z,2.43
2018-10-02T08:38:12.202Z,3.00
2018-10-02T08:40:40.431Z,2.93
2018-10-02T08:43:08.397Z,3.47
2018-10-02T08:45:36.201Z,2.90
2018-10-02T08:48:04.285Z,2.73
2018-10-02T08:50:31.908Z,2.17
2018-10-02T08:52:59.866Z,2.30
2018-10-02T08:55:27.594Z,2.60
2018-10-02T08:57:55.377Z,2.80
2018-10-02T09:00:22.894Z,3.10
2018-10-02T09:02:50.520Z,2.20
2018-10-02T09:05:18.252Z,2.03
2018-10-02T09:07:45.962Z,2.10
2018-10-02T09:10:13.593Z,2.17
2018-10-02T09:12:41.254Z,2.50
2018-10-02T09:15:12.159Z,2.00
2018-10-02T09:17:36.636Z,1.97
2018-10-02T09:20:04.388Z,2.00
2018-10-02T09:22:32.048Z,2.33
2018-10-02T09:24:59.625Z,3.73
2018-10-02T09:27:27.207Z,1.50
2018-10-02T09:30:00.555Z,2.80
2018-10-02T09:32:33.841Z,2.47
2018-10-02T09:35:06.998Z,3.57
2018-10-02T09:37:40.203Z,3.00
2018-10-02T09:40:13.437Z,2.83
2018-10-02T09:42:46.757Z,2.27
2018-10-02T09:45:14.629Z,1.90
2018-10-02T09:47:42.384Z,1.53
2018-10-02T09:50:10.129Z,1.60
2018-10-02T09:52:37.884Z,1.97
2018-10-02T09:55:05.798Z,1.60
2018-10-02T09:57:33.407Z,1.53
2018-10-02T10:00:00.977Z,1.57
2018-10-02T10:02:34.125Z,1.43
2018-10-02T10:05:02.250Z,1.93
2018-10-02T10:07:29.883Z,1.50
2018-10-02T10:09:57.869Z,2.07
2018-10-02T10:12:25.586Z,1.60
2018-10-02T10:14:53.426Z,2.00
2018-10-02T10:17:21.104Z,1.83
2018-10-02T10:19:48.731Z,1.50
2018-10-02T10:22:16.673Z,1.37
2018-10-02T10:24:44.413Z,2.17
2018-10-02T10:27:11.980Z,1.80
2018-10-02T10:29:39.899Z,1.93
2018-10-02T10:32:07.773Z,1.30
2018-10-02T10:34:35.473Z,1.50
2018-10-02T10:37:03.412Z,1.70
2018-10-02T10:39:31.384Z,1.30
2018-10-02T10:41:59.012Z,1.43
2018-10-02T10:44:26.772Z,1.70
2018-10-02T10:46:54.491Z,1.43
2018-10-02T10:49:22.104Z,1.20
2018-10-02T10:51:49.770Z,3.77
2018-10-02T10:54:17.333Z,1.90
2018-10-02T10:56:45.096Z,1.37
2018-10-02T10:59:12.763Z,1.60
2018-10-02T11:01:40.727Z,1.93
2018-10-02T11:04:08.392Z,1.70
2018-10-02T11:06:36.114Z,1.80
2018-10-02T11:09:05.689Z,2.67
2018-10-02T11:11:33.248Z,2.57
2018-10-02T11:14:00.824Z,2.80
2018-10-02T11:16:28.350Z,2.53
2018-10-02T11:18:55.970Z,2.20
2018-10-02T11:21:23.661Z,2.47
2018-10-02T11:23:51.414Z,2.80
2018-10-02T11:26:19.048Z,1.43
2018-10-02T11:28:46.797Z,1.60
2018-10-02T11:31:14.553Z,2.10
2018-10-02T11:33:42.135Z,2.27
2018-10-02T11:36:09.823Z,1.57
2018-10-02T11:38:37.601Z,1.83
2018-10-02T11:41:05.225Z,2.03
2018-10-02T11:43:32.848Z,1.57
2018-10-02T11:46:00.495Z,1.57
2018-10-02T11:48:28.153Z,2.07
2018-10-02T11:50:55.852Z,1.60
2018-10-02T11:53:23.378Z,1.70
2018-10-02T11:55:51.110Z,1.80
2018-10-02T11:58:18.618Z,1.80
2018-10-02T12:00:46.192Z,1.50
2018-10-02T12:03:13.891Z,2.47
2018-10-02T12:05:41.605Z,1.40
2018-10-02T12:08:09.196Z,2.07
2018-10-02T12:10:37.141Z,3.47
2018-10-02T12:13:05.022Z,1.33
2018-10-02T12:15:32.709Z,1.53
2018-10-02T12:18:00.322Z,2.00
2018-10-02T12:20:28.178Z,1.20
2018-10-02T12:22:56.031Z,1.40
2018-10-02T12:25:23.863Z,1.67
2018-10-02T12:27:52.010Z,1.50
2018-10-02T12:30:19.644Z,3.27
2018-10-02T12:32:47.222Z,0.83
2018-10-02T12:35:14.800Z,1.70
2018-10-02T12:37:42.356Z,1.20
2018-10-02T12:40:10.037Z,1.70
2018-10-02T12:42:37.590Z,1.27
2018-10-02T12:45:05.222Z,1.40
2018-10-02T12:47:32.840Z,1.13
2018-10-02T12:50:00.536Z,1.60
2018-10-02T12:52:28.437Z,1.40
2018-10-02T12:54:56.083Z,1.20
2018-10-02T12:57:23.737Z,1.03
2018-10-02T12:59:51.389Z,1.30
2018-10-02T13:02:19.250Z,1.30
2018-10-02T13:04:46.817Z,1.63
2018-10-02T13:07:15.812Z,1.20
2018-10-02T13:09:43.385Z,1.20
2018-10-02T13:12:11.225Z,1.60
2018-10-02T13:14:39.248Z,1.20
2018-10-02T13:17:07.423Z,1.30
2018-10-02T13:19:35.012Z,1.00
2018-10-02T13:22:02.549Z,1.13
2018-10-02T13:24:30.387Z,1.10
2018-10-02T13:26:57.904Z,1.50
2018-10-02T13:29:25.449Z,1.40
2018-10-02T13:31:53.503Z,1.33
2018-10-02T13:34:21.308Z,1.00
2018-10-02T13:36:49.529Z,2.10
2018-10-02T13:39:17.253Z,1.90
2018-10-02T13:41:44.872Z,1.43
2018-10-02T13:44:12.551Z,1.70
2018-10-02T13:46:40.088Z,1.90
2018-10-02T13:49:07.777Z,1.60
2018-10-02T13:51:35.401Z,1.17
2018-10-02T13:54:02.983Z,1.23
2018-10-02T13:56:30.781Z,2.07
2018-10-02T13:58:58.474Z,1.50
2018-10-02T14:01:26.187Z,2.57
2018-10-02T14:03:53.898Z,1.10
2018-10-02T14:06:21.433Z,1.47
2018-10-02T14:08:49.303Z,1.07
2018-10-02T14:11:17.347Z,1.07
2018-10-02T14:13:45.190Z,1.53
2018-10-02T14:16:13.372Z,1.10
2018-10-02T14:18:40.901Z,1.57
2018-10-02T14:21:08.504Z,1.40
2018-10-02T14:23:36.300Z,1.33
2018-10-02T14:26:03.960Z,1.30
2018-10-02T14:28:31.661Z,1.80
2018-10-02T14:30:59.482Z,1.00
2018-10-02T14:33:27.467Z,1.20
2018-10-02T14:35:55.116Z,1.10
2018-10-02T14:38:22.869Z,1.37
2018-10-02T14:40:50.548Z,1.10
2018-10-02T14:43:18.210Z,1.10
2018-10-02T14:45:45.733Z,1.40
2018-10-02T14:48:13.699Z,1.20
2018-10-02T14:50:41.252Z,1.27
2018-10-02T14:53:08.860Z,1.73
2018-10-02T14:55:36.500Z,0.70
2018-10-02T14:58:04.110Z,0.97
2018-10-02T15:00:32.265Z,1.10
2018-10-02T15:02:59.947Z,1.17
2018-10-02T15:05:27.528Z,1.53
2018-10-02T15:07:55.304Z,1.83
2018-10-02T15:10:22.887Z,1.13
2018-10-02T15:12:50.463Z,1.10
2018-10-02T15:15:17.986Z,1.33
2018-10-02T15:17:45.895Z,1.97
2018-10-02T15:20:13.549Z,1.70
2018-10-02T15:22:41.471Z,1.43
2018-10-02T15:25:09.100Z,1.93
2018-10-02T15:27:37.106Z,1.23
2018-10-02T15:30:05.494Z,1.47
2018-10-02T15:32:33.084Z,1.57
2018-10-02T15:35:00.682Z,2.43
2018-10-02T15:37:28.889Z,2.20
2018-10-02T15:39:57.245Z,1.97
2018-10-02T15:42:25.093Z,1.87
2018-10-02T15:44:52.751Z,2.70
2018-10-02T15:47:20.317Z,4.23
2018-10-02T15:49:47.905Z,5.67
2018-10-02T15:52:15.784Z,6.20
2018-10-02T15:54:43.476Z,2.37
2018-10-02T15:57:11.207Z,2.70
2018-10-02T15:59:38.799Z,4.00
2018-10-02T16:02:06.519Z,4.37
2018-10-02T16:04:34.241Z,2.90
2018-10-02T16:07:01.907Z,2.33
2018-10-02T16:09:29.584Z,2.03
2018-10-02T16:11:57.453Z,2.50
2018-10-02T16:14:24.981Z,2.87
2018-10-02T16:16:52.549Z,2.30
2018-10-02T16:19:20.174Z,2.83
2018-10-02T16:21:47.786Z,2.83
2018-10-02T16:24:15.394Z,2.50
2018-10-02T16:26:43.216Z,3.40
2018-10-02T16:29:10.941Z,3.03
2018-10-02T16:31:38.636Z,4.80
2018-10-02T16:34:06.321Z,5.57
2018-10-02T16:36:33.929Z,2.20
2018-10-02T16:39:01.452Z,1.73
2018-10-02T16:41:29.700Z,1.90
2018-10-02T16:43:57.483Z,5.07
2018-10-02T16:46:25.265Z,1.30
2018-10-02T16:48:52.978Z,1.50
2018-10-02T16:51:20.655Z,2.30
2018-10-02T16:53:48.341Z,1.33
2018-10-02T16:56:16.049Z,3.80
2018-10-02T16:58:43.851Z,2.53
2018-10-02T17:01:11.631Z,3.90
2018-10-02T17:03:39.488Z,3.10
2018-10-02T17:06:07.036Z,1.90
2018-10-02T17:08:34.657Z,1.90
2018-10-02T17:11:02.246Z,2.27
2018-10-02T17:13:30.000Z,1.87
2018-10-02T17:15:57.726Z,1.60
2018-10-02T17:18:25.560Z,2.23
2018-10-02T17:20:53.191Z,2.40
2018-10-02T17:23:20.886Z,3.07
2018-10-02T17:25:48.501Z,2.20
2018-10-02T17:28:16.212Z,1.67
2018-10-02T17:30:43.783Z,1.87
2018-10-02T17:33:11.322Z,1.57
2018-10-02T17:35:38.934Z,2.17
2018-10-02T17:38:06.557Z,1.40
2018-10-02T17:40:34.600Z,1.87
2018-10-02T17:43:02.409Z,2.00
2018-10-02T17:45:30.257Z,1.50
2018-10-02T17:47:58.256Z,2.60
2018-10-02T17:50:25.834Z,1.77
2018-10-02T17:52:53.366Z,1.93
2018-10-02T17:55:21.204Z,1.77
2018-10-02T17:57:49.195Z,2.10
2018-10-02T18:00:16.909Z,2.80
2018-10-02T18:02:44.594Z,2.03
2018-10-02T18:05:12.161Z,2.60
2018-10-02T18:07:39.844Z,3.90
2018-10-02T18:10:07.398Z,4.23
2018-10-02T18:12:35.024Z,2.80
2018-10-02T18:15:02.720Z,3.70
2018-10-02T18:17:30.541Z,2.50
2018-10-02T18:19:58.344Z,2.07
2018-10-02T18:22:26.308Z,1.70
2018-10-02T18:24:54.066Z,1.80
2018-10-02T18:27:21.890Z,1.80
2018-10-02T18:29:49.416Z,2.10
2018-10-02T18:32:16.947Z,2.00
2018-10-02T18:34:44.818Z,1.60
2018-10-02T18:37:12.557Z,2.70
2018-10-02T18:39:40.461Z,3.60
2018-10-02T18:42:08.099Z,2.13
2018-10-02T18:44:35.680Z,2.00
2018-10-02T18:47:03.347Z,2.13
2018-10-02T18:49:31.019Z,5.37
2018-10-02T18:51:58.747Z,3.07
2018-10-02T18:54:26.522Z,2.80
2018-10-02T18:56:54.061Z,2.37
2018-10-02T18:59:22.657Z,2.70
2018-10-02T19:01:50.289Z,2.27
2018-10-02T19:04:18.022Z,2.30
2018-10-02T19:06:45.665Z,1.50
2018-10-02T19:09:15.952Z,2.30
2018-10-02T19:11:49.584Z,1.80
2018-10-02T19:14:18.432Z,3.10
2018-10-02T19:16:46.113Z,2.80
2018-10-02T19:19:19.388Z,1.90
2018-10-02T19:21:47.330Z,1.73
2018-10-02T19:24:15.322Z,2.67
2018-10-02T19:26:43.335Z,2.17
2018-10-02T19:29:11.347Z,2.53
2018-10-02T19:31:44.732Z,2.80
2018-10-02T19:34:12.528Z,3.17
2018-10-02T19:36:40.461Z,2.00
2018-10-02T19:39:17.846Z,2.77
2018-10-02T19:41:45.403Z,2.40
2018-10-02T19:44:13.224Z,2.00
2018-10-02T19:46:44.621Z,2.00
2018-10-02T19:49:12.313Z,1.70
2018-10-02T19:51:45.698Z,2.17
2018-10-02T19:54:13.578Z,2.47
2018-10-02T19:56:41.202Z,1.73
2018-10-02T19:59:08.856Z,2.73
2018-10-02T20:01:36.476Z,1.90
2018-10-02T20:04:04.218Z,1.53
2018-10-02T20:06:32.085Z,1.97
2018-10-02T20:08:59.776Z,1.70
2018-10-02T20:11:27.802Z,2.17
2018-10-02T20:13:55.460Z,2.07
2018-10-02T20:16:23.131Z,2.13
2018-10-02T20:18:50.681Z,2.13
2018-10-02T20:21:18.363Z,1.80
2018-10-02T20:23:45.899Z,1.47
2018-10-02T20:26:13.752Z,2.20
2018-10-02T20:28:41.306Z,2.20
2018-10-02T20:31:09.404Z,1.67
2018-10-02T20:33:37.069Z,1.97
2018-10-02T20:36:04.672Z,2.10
2018-10-02T20:38:32.436Z,2.20
2018-10-02T20:41:00.122Z,1.53
2018-10-02T20:43:27.692Z,1.73
2018-10-02T20:45:55.669Z,2.20
2018-10-02T20:48:23.437Z,1.70
2018-10-02T20:50:51.176Z,1.70
2018-10-02T20:53:18.843Z,2.10
2018-10-02T20:55:46.665Z,2.10
2018-10-02T20:58:15.132Z,2.37
2018-10-02T21:00:42.756Z,2.10
2018-10-02T21:03:10.397Z,2.07
2018-10-02T21:05:37.937Z,2.90
2018-10-02T21:08:05.548Z,2.13
2018-10-02T21:10:33.338Z,1.97
2018-10-02T21:13:00.927Z,1.67
2018-10-02T21:15:28.610Z,2.03
2018-10-02T21:17:56.121Z,2.00
2018-10-02T21:20:23.726Z,1.43
2018-10-02T21:22:51.623Z,3.03
2018-10-02T21:25:19.391Z,2.07
2018-10-02T21:27:47.376Z,2.97
2018-10-02T21:30:15.015Z,2.03
2018-10-02T21:32:42.798Z,2.10
2018-10-02T21:35:10.587Z,1.90
2018-10-02T21:37:38.433Z,1.83
2018-10-02T21:40:06.264Z,2.10
2018-10-02T21:42:33.741Z,2.30
2018-10-02T21:45:01.349Z,2.07
2018-10-02T21:47:29.020Z,1.67
2018-10-02T21:49:56.736Z,1.83
2018-10-02T21:52:24.428Z,2.10
2018-10-02T21:54:52.260Z,1.70
2018-10-02T21:57:20.018Z,1.60
2018-10-02T21:59:48.089Z,2.37
2018-10-02T22:02:15.926Z,1.70
2018-10-02T22:04:43.614Z,2.90
2018-10-02T22:07:11.249Z,2.00
2018-10-02T22:09:38.960Z,1.70
2018-10-02T22:12:06.815Z,2.20
2018-10-02T22:14:34.645Z,1.80
2018-10-02T22:17:02.249Z,2.10
2018-10-02T22:19:30.137Z,1.93
2018-10-02T22:21:57.970Z,1.87
2018-10-02T22:24:25.656Z,1.93
2018-10-02T22:26:53.352Z,1.70
2018-10-02T22:29:20.954Z,2.03
2018-10-02T22:31:48.592Z,2.07
2018-10-02T22:34:16.296Z,2.37
2018-10-02T22:36:44.130Z,2.30
2018-10-02T22:39:12.116Z,2.10
2018-10-02T22:41:39.803Z,2.33
2018-10-02T22:44:07.537Z,1.47
2018-10-02T22:46:35.201Z,2.30
2018-10-02T22:49:03.088Z,1.87
2018-10-02T22:51:30.750Z,2.03
2018-10-02T22:53:58.713Z,1.90
2018-10-02T22:56:26.295Z,2.17
2018-10-02T22:58:54.025Z,2.47
2018-10-02T23:01:22.008Z,2.17
2018-10-02T23:03:49.780Z,1.97
2018-10-02T23:06:17.400Z,2.47
2018-10-02T23:08:45.134Z,1.87
2018-10-02T23:11:12.769Z,2.27
2018-10-02T23:13:40.374Z,2.30
2018-10-02T23:16:07.998Z,1.47
2018-10-02T23:18:35.597Z,1.50
2018-10-02T23:21:03.302Z,1.90
2018-10-02T23:23:30.852Z,1.77
2018-10-02T23:25:58.404Z,1.63
2018-10-02T23:28:26.016Z,2.40
2018-10-02T23:30:53.638Z,2.33
2018-10-02T23:33:21.364Z,1.83
2018-10-02T23:35:48.880Z,2.23
2018-10-02T23:38:16.586Z,1.70
2018-10-02T23:40:44.215Z,1.47
2018-10-02T23:43:11.760Z,2.20
2018-10-02T23:45:39.412Z,2.20
2018-10-02T23:48:07.173Z,2.50
2018-10-02T23:50:35.065Z,2.37
2018-10-02T23:53:02.912Z,2.00
2018-10-02T23:55:30.557Z,2.40
2018-10-02T23:57:58.325Z,1.83
